Time;durP1;ratioP1;P1;durP2;ratioP2;P2;SDS_P1;SDS_P2;PMS_P1;PMS_P2;Temp;Humidity;BMP_temperature;BMP_pressure;BME280_temperature;BME280_humidity;BME280_pressure;Samples;Min_cycle;Max_cycle;Signal;HPM_P1;HPM_P2
2022/06/20 00:00:11;;;;;;;;;34.00;31.00;;;;;21.14;58.09;100675.44;4974940;27;47292;-73
2022/06/20 00:02:42;;;;;;;;;29.00;29.00;;;;;21.37;58.57;100735.75;4992954;27;45355;-73
2022/06/20 00:05:14;;;;;;;;;30.33;27.67;;;;;20.65;59.02;100657.09;4974889;27;45485;-72
2022/06/20 00:07:40;;;;;;;;;31.67;30.67;;;;;20.61;59.95;100690.06;4993460;27;45258;-73
2022/06/20 00:10:06;;;;;;;;;26.67;26.67;;;;;20.77;60.04;100708.09;4992989;27;45457;-74
2022/06/20 00:12:31;;;;;;;;;33.67;31.33;;;;;20.86;61.24;100735.19;4992715;27;45528;-74
2022/06/20 00:15:02;;;;;;;;;30.00;28.67;;;;;20.90;60.93;100747.44;4992940;27;45509;-73
2022/06/20 00:17:28;;;;;;;;;35.00;31.33;;;;;20.79;61.63;100756.81;4993822;27;45545;-72
2022/06/20 00:19:53;;;;;;;;;26.67;26.67;;;;;20.70;61.96;100777.53;4978126;27;46299;-73
2022/06/20 00:22:19;;;;;;;;;28.33;28.33;;;;;20.51;61.92;100736.56;4979100;27;45331;-73
2022/06/20 00:24:44;;;;;;;;;29.67;27.67;;;;;20.08;62.27;100669.97;4993060;27;45381;-73
2022/06/20 00:27:10;;;;;;;;;27.33;27.00;;;;;19.72;62.54;100611.09;4993486;27;45387;-73
2022/06/20 00:29:38;;;;;;;;;32.00;30.33;;;;;20.42;62.99;100723.63;4992214;27;46190;-75
2022/06/20 00:32:05;;;;;;;;;23.33;23.33;;;;;20.43;63.10;100726.25;4989402;27;45532;-73
2022/06/20 00:34:31;;;;;;;;;22.00;19.33;;;;;20.47;62.89;100703.03;4975096;27;45873;-74
2022/06/20 00:36:57;;;;;;;;;22.00;18.33;;;;;20.75;62.62;100700.16;4974698;27;45741;-71
2022/06/20 00:39:23;;;;;;;;;20.00;19.67;;;;;20.93;62.53;100703.88;4972953;27;45347;-72
2022/06/20 00:41:49;;;;;;;;;23.33;19.00;;;;;20.93;63.17;100690.56;4972259;27;45446;-70
2022/06/20 00:44:27;;;;;;;;;38.67;33.67;;;;;21.03;62.27;100677.72;4972764;27;45481;-68
2022/06/20 00:46:59;;;;;;;;;31.00;29.67;;;;;20.88;63.16;100671.22;4976976;28;45538;-71
2022/06/20 00:49:34;;;;;;;;;30.67;30.33;;;;;20.86;62.45;100667.78;4973931;27;45367;-71
2022/06/20 00:52:17;;;;;;;;;31.67;28.33;;;;;20.93;62.68;100683.44;4978853;27;45815;-71
2022/06/20 00:54:58;;;;;;;;;29.67;25.67;;;;;20.92;62.70;100692.34;4972902;27;45405;-72
2022/06/20 00:57:32;;;;;;;;;21.67;19.67;;;;;20.93;62.72;100686.09;4974366;28;45362;-71
2022/06/20 01:00:03;;;;;;;;;21.33;20.67;;;;;21.21;61.85;100718.69;4974688;27;46105;-71
2022/06/20 01:02:34;;;;;;;;;18.67;18.33;;;;;21.41;61.47;100747.19;4992091;27;45457;-69
2022/06/20 01:05:05;;;;;;;;;21.67;21.00;;;;;21.47;60.85;100736.25;4993635;27;45485;-70
2022/06/20 01:07:42;;;;;;;;;24.33;20.33;;;;;21.67;60.73;100749.56;4993251;27;45374;-71
2022/06/20 01:10:12;;;;;;;;;22.67;20.67;;;;;21.50;61.03;100757.44;4994248;27;45485;-70
2022/06/20 01:12:48;;;;;;;;;22.00;22.00;;;;;21.53;61.19;100771.50;4993133;27;45513;-72
2022/06/20 01:15:26;;;;;;;;;18.00;17.33;;;;;21.48;61.38;100744.19;4993361;28;45426;-70
2022/06/20 01:17:53;;;;;;;;;19.67;18.33;;;;;21.53;60.97;100734.19;4975932;27;45495;-71
2022/06/20 01:20:26;;;;;;;;;18.67;18.67;;;;;21.76;60.75;100759.84;4993059;27;46208;-71
2022/06/20 01:23:30;;;;;;;;;20.33;19.33;;;;;21.86;60.13;100754.94;4994585;27;45674;-70
2022/06/20 01:26:16;;;;;;;;;18.67;18.00;;;;;21.95;60.04;100741.22;4989209;27;45314;-70
2022/06/20 01:28:46;;;;;;;;;19.33;18.67;;;;;22.01;59.69;100722.25;4996281;27;45680;-70
2022/06/20 01:31:15;;;;;;;;;25.67;24.33;;;;;21.95;60.25;100705.69;4993036;27;46232;-69
2022/06/20 01:33:41;;;;;;;;;29.00;24.33;;;;;21.76;59.86;100697.66;4991765;27;45384;-72
2022/06/20 01:38:55;;;;;;;;;25.67;25.00;;;;;21.31;61.22;100669.41;4991940;27;45356;-71
2022/06/20 01:44:06;;;;;;;;;26.33;24.67;;;;;20.92;62.22;100635.56;4991829;27;47180;-72
2022/06/20 01:46:34;;;;;;;;;27.67;27.67;;;;;20.78;62.46;100627.31;4991800;27;45446;-70
2022/06/20 01:49:13;;;;;;;;;23.00;23.00;;;;;20.60;62.63;100631.63;4992233;27;45564;-72
2022/06/20 01:51:44;;;;;;;;;28.67;25.67;;;;;20.41;63.82;100612.84;4991390;27;46192;-70
2022/06/20 01:54:13;;;;;;;;;21.33;21.33;;;;;20.40;63.94;100592.47;4991431;27;45422;-71
2022/06/20 01:56:40;;;;;;;;;27.00;24.67;;;;;20.35;63.57;100542.13;4990889;27;45511;-70
2022/06/20 01:59:22;;;;;;;;;30.67;25.33;;;;;20.37;64.08;100495.06;4985312;27;46096;-70
2022/06/20 02:01:50;;;;;;;;;36.33;33.00;;;;;20.27;63.91;100411.28;4986721;28;46116;-70
2022/06/20 02:04:19;;;;;;;;;30.33;28.00;;;;;20.05;64.26;100347.50;4984984;27;45531;-70
2022/06/20 02:06:47;;;;;;;;;31.33;29.33;;;;;19.83;65.08;100332.50;4974046;28;45524;-71
2022/06/20 02:09:14;;;;;;;;;27.33;26.33;;;;;19.69;65.88;100359.69;4989126;27;45229;-72
2022/06/20 02:11:47;;;;;;;;;30.67;27.67;;;;;19.62;66.16;100370.56;4972109;27;46330;-71
2022/06/20 02:14:24;;;;;;;;;35.33;31.00;;;;;19.51;66.38;100381.66;4970626;28;45764;-70
2022/06/20 02:16:56;;;;;;;;;31.00;25.67;;;;;19.26;67.19;100377.31;4986775;27;45536;-71
2022/06/20 02:19:27;;;;;;;;;29.00;27.00;;;;;19.20;67.77;100413.88;4990093;27;45454;-71
2022/06/20 02:21:58;;;;;;;;;30.33;28.67;;;;;19.24;68.06;100436.69;4989925;27;45456;-70
2022/06/20 02:24:25;;;;;;;;;26.00;23.33;;;;;19.22;67.52;100447.41;4975657;28;45319;-70
2022/06/20 02:26:54;;;;;;;;;25.33;23.00;;;;;19.15;67.82;100460.94;4973883;28;45695;-70
2022/06/20 02:29:26;;;;;;;;;23.67;22.67;;;;;19.11;67.91;100476.13;4976731;28;45494;-71
2022/06/20 02:32:22;;;;;;;;;26.33;21.67;;;;;19.19;67.63;100499.72;4990797;27;46325;-71
2022/06/20 02:34:48;;;;;;;;;23.67;22.00;;;;;19.36;67.10;100531.84;4979921;27;45445;-69
2022/06/20 02:37:20;;;;;;;;;20.67;18.00;;;;;19.44;66.50;100536.88;4990792;27;45554;-71
2022/06/20 02:39:49;;;;;;;;;20.67;18.67;;;;;19.66;66.09;100552.84;4984086;28;45400;-70
2022/06/20 02:42:21;;;;;;;;;18.33;18.33;;;;;19.82;65.66;100561.13;4985102;27;45671;-72
2022/06/20 02:44:49;;;;;;;;;19.00;17.00;;;;;19.87;65.20;100556.50;4990340;27;45465;-72
2022/06/20 02:47:18;;;;;;;;;17.67;15.33;;;;;20.20;64.92;100595.97;4990690;28;45354;-71
2022/06/20 02:49:45;;;;;;;;;18.00;14.33;;;;;20.37;64.15;100584.63;4990866;27;45461;-70
2022/06/20 02:52:31;;;;;;;;;21.33;17.33;;;;;20.50;63.98;100596.47;4991472;27;46614;-70
2022/06/20 02:54:59;;;;;;;;;16.67;16.67;;;;;20.53;63.67;100593.72;4975153;27;45461;-71
2022/06/20 02:57:35;;;;;;;;;16.33;16.00;;;;;20.76;63.32;100611.38;4976645;28;45489;-71
2022/06/20 03:00:04;;;;;;;;;19.33;18.00;;;;;20.86;63.35;100606.56;4982979;27;45501;-73
2022/06/20 03:02:35;;;;;;;;;16.67;16.67;;;;;20.92;62.82;100599.16;4992054;27;46460;-71
2022/06/20 03:05:01;;;;;;;;;14.00;13.67;;;;;20.90;62.92;100585.03;4993354;27;45312;-71
2022/06/20 03:07:36;;;;;;;;;18.00;18.00;;;;;21.05;62.50;100596.84;4993481;27;45706;-70
2022/06/20 03:10:25;;;;;;;;;19.67;16.67;;;;;21.23;62.32;100620.94;4993964;27;45545;-71
2022/06/20 03:12:52;;;;;;;;;19.00;19.00;;;;;21.20;62.28;100623.72;4992895;27;46187;-72
2022/06/20 03:15:18;;;;;;;;;23.67;19.67;;;;;21.36;62.06;100648.75;4974890;27;45477;-72
2022/06/20 03:17:46;;;;;;;;;22.00;20.67;;;;;21.41;61.64;100653.94;4988081;27;45433;-71
2022/06/20 03:20:14;;;;;;;;;19.67;19.33;;;;;21.45;61.53;100659.06;4997495;27;45428;-70
2022/06/20 03:23:08;;;;;;;;;19.33;19.33;;;;;21.47;61.44;100667.81;4979656;28;45535;-71
2022/06/20 03:25:36;;;;;;;;;20.67;20.00;;;;;21.49;60.99;100657.09;4998018;27;45289;-72
2022/06/20 03:28:02;;;;;;;;;20.67;18.33;;;;;21.58;60.90;100672.69;4997494;27;45334;-71
2022/06/20 03:30:32;;;;;;;;;20.67;19.33;;;;;21.62;60.80;100673.41;4994197;27;46030;-71
2022/06/20 03:33:01;;;;;;;;;20.33;19.33;;;;;21.65;60.90;100683.94;4993341;27;46060;-72
2022/06/20 03:35:30;;;;;;;;;19.33;19.33;;;;;21.68;60.59;100691.78;4993660;27;45534;-71
2022/06/20 03:38:02;;;;;;;;;20.00;18.67;;;;;21.57;60.66;100684.28;4993865;27;45239;-70
2022/06/20 03:40:28;;;;;;;;;19.33;17.67;;;;;21.66;59.96;100701.66;4993592;27;45396;-71
2022/06/20 03:42:56;;;;;;;;;19.00;17.00;;;;;21.62;60.19;100695.59;4993868;27;46053;-71
2022/06/20 03:45:27;;;;;;;;;18.33;17.67;;;;;21.63;59.65;100702.66;4993616;27;45448;-71
2022/06/20 03:48:01;;;;;;;;;18.33;18.33;;;;;21.74;59.67;100721.72;4995787;27;45492;-71
2022/06/20 03:50:37;;;;;;;;;18.50;18.50;;;;;21.67;59.66;100700.72;4994092;27;45518;-71
2022/06/20 03:53:13;;;;;;;;;18.33;17.33;;;;;21.73;59.37;100708.44;4995033;27;45418;-69
2022/06/20 03:56:11;;;;;;;;;18.67;16.67;;;;;21.66;59.25;100698.97;4996186;27;45449;-71
2022/06/20 03:59:17;;;;;;;;;20.33;18.00;;;;;21.74;59.33;100711.03;4986683;27;45801;-71
2022/06/20 04:01:52;;;;;;;;;19.67;18.33;;;;;21.74;58.94;100718.19;5055832;28;45346;-71
2022/06/20 04:04:44;;;;;;;;;19.33;18.00;;;;;21.71;59.15;100724.53;4974690;28;46450;-71
2022/06/20 04:07:30;;;;;;;;;19.67;18.00;;;;;21.50;58.78;100701.50;4977926;28;45790;-72
2022/06/20 04:13:18;;;;;;;;;16.00;16.00;;;;;21.32;58.37;100703.09;4988986;27;45386;-71
2022/06/20 04:15:50;;;;;;;;;18.33;17.67;;;;;21.60;58.28;100743.63;4985704;27;46620;-71
2022/06/20 04:18:49;;;;;;;;;18.00;16.67;;;;;21.65;58.18;100745.25;4996764;27;45399;-71
2022/06/20 04:21:41;;;;;;;;;18.67;18.67;;;;;21.63;57.96;100747.97;4994461;27;45369;-72
2022/06/20 04:24:17;;;;;;;;;16.33;14.67;;;;;21.63;58.11;100744.44;4965378;28;45569;-71
2022/06/20 04:27:18;;;;;;;;;20.67;19.00;;;;;21.60;58.12;100754.28;4996182;28;46272;-71
2022/06/20 04:29:54;;;;;;;;;18.67;18.00;;;;;21.62;57.98;100761.34;4991531;27;45437;-71
2022/06/20 04:32:32;;;;;;;;;18.00;17.33;;;;;21.54;58.14;100754.56;4975604;28;45504;-71
2022/06/20 04:35:04;;;;;;;;;18.67;18.67;;;;;21.57;57.79;100766.91;4974978;28;45319;-70
2022/06/20 04:37:44;;;;;;;;;20.00;18.33;;;;;21.56;57.51;100776.69;4991918;27;46188;-70
2022/06/20 04:40:34;;;;;;;;;16.00;16.00;;;;;21.50;57.56;100763.63;4996274;27;45325;-71
2022/06/20 04:43:21;;;;;;;;;19.33;18.33;;;;;21.53;57.47;100779.47;4985737;27;45735;-70
2022/06/20 04:45:47;;;;;;;;;19.00;19.00;;;;;21.50;57.15;100790.28;4996335;27;45721;-70
2022/06/20 04:48:19;;;;;;;;;20.33;19.67;;;;;21.49;57.01;100793.84;4996032;27;45406;-70
2022/06/20 04:50:51;;;;;;;;;20.00;17.00;;;;;21.44;57.31;100797.66;4994238;27;45470;-70
2022/06/20 04:53:27;;;;;;;;;24.67;22.67;;;;;21.24;57.80;100788.69;4982891;28;45590;-70
2022/06/20 04:55:58;;;;;;;;;23.33;21.00;;;;;21.28;57.34;100805.38;4989436;27;45335;-71
2022/06/20 04:58:47;;;;;;;;;21.00;20.00;;;;;21.17;57.65;100806.72;4996187;27;46694;-71
2022/06/20 05:01:14;;;;;;;;;20.33;18.33;;;;;21.24;57.56;100815.31;4996133;27;45447;-71
2022/06/20 05:03:44;;;;;;;;;19.00;18.67;;;;;21.27;57.81;100819.66;4996638;27;45420;-71
2022/06/20 05:06:20;;;;;;;;;18.67;18.33;;;;;21.28;57.44;100824.91;4992951;27;45400;-71
2022/06/20 05:09:19;;;;;;;;;18.67;17.33;;;;;21.22;57.35;100822.50;4992372;27;45505;-71
2022/06/20 05:11:50;;;;;;;;;22.67;21.00;;;;;21.30;57.22;100830.16;4992021;27;45655;-71
2022/06/20 05:14:45;;;;;;;;;22.67;21.00;;;;;21.28;57.11;100808.06;4982102;27;45310;-71
2022/06/20 05:17:25;;;;;;;;;20.33;19.33;;;;;21.39;57.04;100824.47;4979176;27;45402;-71
2022/06/20 05:19:55;;;;;;;;;20.33;17.33;;;;;21.31;57.18;100807.94;4991616;27;46165;-70
2022/06/20 05:22:28;;;;;;;;;18.00;16.33;;;;;21.43;56.53;100831.44;4992143;27;45480;-70
2022/06/20 05:24:58;;;;;;;;;18.67;18.67;;;;;21.45;56.56;100834.91;4992191;27;45420;-71
2022/06/20 05:27:33;;;;;;;;;18.33;16.33;;;;;21.48;56.62;100825.91;4974683;28;45547;-70
2022/06/20 05:30:01;;;;;;;;;18.33;17.00;;;;;21.52;56.28;100830.16;4996049;27;46481;-70
2022/06/20 05:32:54;;;;;;;;;16.67;15.67;;;;;21.52;56.20;100822.16;4993873;27;45550;-71
2022/06/20 05:35:25;;;;;;;;;18.00;15.33;;;;;21.52;56.78;100835.50;4991331;27;46370;-71
2022/06/20 05:37:50;;;;;;;;;21.67;21.67;;;;;21.50;56.49;100835.59;4966785;28;45502;-71
2022/06/20 05:40:28;;;;;;;;;29.67;22.67;;;;;21.46;56.73;100844.63;4985587;28;45805;-71
2022/06/20 05:42:54;;;;;;;;;22.67;22.00;;;;;21.17;56.88;100837.81;4973960;28;45371;-72
2022/06/20 05:45:23;;;;;;;;;21.00;21.00;;;;;21.11;57.25;100857.53;4987660;27;45928;-72
2022/06/20 05:47:54;;;;;;;;;20.00;18.00;;;;;21.00;57.77;100866.88;4992117;27;45456;-71
2022/06/20 05:50:38;;;;;;;;;18.67;16.00;;;;;21.03;57.51;100875.63;4991324;27;45571;-70
2022/06/20 05:53:11;;;;;;;;;15.33;14.33;;;;;21.07;57.50;100869.28;4978986;27;45845;-72
2022/06/20 05:55:46;;;;;;;;;16.00;16.00;;;;;20.88;57.23;100837.16;4990965;27;45386;-71
2022/06/20 05:58:22;;;;;;;;;18.00;16.00;;;;;21.17;57.11;100870.63;4992090;27;45728;-71
2022/06/20 06:00:51;;;;;;;;;14.67;14.33;;;;;21.24;56.73;100879.25;4991127;27;46094;-71
2022/06/20 06:03:24;;;;;;;;;18.00;14.67;;;;;21.26;56.47;100885.38;5034435;27;45435;-71
2022/06/20 06:06:00;;;;;;;;;16.67;14.67;;;;;21.24;56.44;100873.06;5020661;27;45397;-71
2022/06/20 06:08:39;;;;;;;;;16.67;14.33;;;;;21.28;56.24;100875.50;4992291;28;45451;-71
2022/06/20 06:11:13;;;;;;;;;20.67;19.33;;;;;21.32;57.13;100889.59;4991277;27;45620;-72
2022/06/20 06:14:06;;;;;;;;;20.00;16.67;;;;;21.18;56.85;100885.66;4988928;28;45724;-71
2022/06/20 06:17:05;;;;;;;;;16.67;15.33;;;;;21.12;57.20;100899.25;4990408;27;45535;-71
2022/06/20 06:19:58;;;;;;;;;14.00;12.33;;;;;21.01;56.53;100872.16;4992165;27;45404;-71
2022/06/20 06:22:29;;;;;;;;;14.00;14.00;;;;;21.18;56.55;100898.13;4991090;27;46643;-74
2022/06/20 06:24:59;;;;;;;;;14.33;13.67;;;;;21.12;56.46;100885.06;4992917;27;45411;-71
2022/06/20 06:27:30;;;;;;;;;13.00;12.00;;;;;21.30;56.13;100910.09;4996401;27;45162;-71
2022/06/20 06:30:08;;;;;;;;;11.67;11.67;;;;;21.35;56.19;100910.75;4997976;27;45472;-72
2022/06/20 06:32:48;;;;;;;;;12.00;11.67;;;;;21.30;56.67;100899.44;4973071;28;47545;-69
2022/06/20 06:35:29;;;;;;;;;16.33;13.00;;;;;21.45;56.07;100925.50;4975925;27;45336;-71
2022/06/20 06:38:17;;;;;;;;;15.00;15.00;;;;;21.28;55.63;100906.63;4977955;27;45689;-69
2022/06/20 06:40:54;;;;;;;;;15.67;15.67;;;;;21.39;55.94;100933.69;4982700;27;45477;-71
2022/06/20 06:43:38;;;;;;;;;21.33;18.00;;;;;21.25;56.05;100939.56;4977571;27;46144;-70
2022/06/20 06:46:11;;;;;;;;;14.33;12.00;;;;;21.18;57.44;100930.94;4974738;27;45946;-72
2022/06/20 06:48:54;;;;;;;;;14.00;14.00;;;;;21.30;57.01;100931.41;4975344;27;45389;-72
2022/06/20 06:51:22;;;;;;;;;15.00;12.00;;;;;21.45;56.60;100938.84;4974371;27;45410;-72
2022/06/20 06:54:00;;;;;;;;;11.67;11.00;;;;;21.57;55.96;100950.78;4973646;27;45348;-72
2022/06/20 06:56:30;;;;;;;;;20.33;19.00;;;;;21.60;55.52;100956.00;4956559;28;46327;-73
2022/06/20 06:59:05;;;;;;;;;16.67;14.00;;;;;21.59;55.61;100956.91;4974277;28;45523;-71
2022/06/20 07:01:41;;;;;;;;;10.67;9.33;;;;;21.68;55.32;100967.19;4978106;27;45355;-73
2022/06/20 07:04:16;;;;;;;;;9.33;9.33;;;;;21.74;54.82;100958.09;4975340;27;46910;-73
2022/06/20 07:07:15;;;;;;;;;17.00;15.00;;;;;21.55;55.15;100965.97;4974556;27;45631;-71
2022/06/20 07:09:49;;;;;;;;;14.00;10.67;;;;;21.38;55.75;100961.28;4973831;28;45598;-71
2022/06/20 07:12:26;;;;;;;;;10.33;10.33;;;;;21.51;55.55;100975.00;4989820;27;45318;-70
2022/06/20 07:15:16;;;;;;;;;10.33;9.33;;;;;21.62;54.85;100982.56;4997037;27;46555;-71
2022/06/20 07:18:01;;;;;;;;;8.67;6.00;;;;;21.74;54.73;100985.63;4996301;27;45448;-71
2022/06/20 07:20:34;;;;;;;;;12.67;11.33;;;;;21.84;54.24;100991.44;5070572;27;45310;-72
2022/06/20 07:23:05;;;;;;;;;11.00;10.00;;;;;21.78;53.89;100975.69;4991984;27;45304;-73
2022/06/20 07:25:38;;;;;;;;;9.67;8.00;;;;;21.92;54.10;100983.97;4991724;27;45756;-72
2022/06/20 07:28:34;;;;;;;;;10.00;9.33;;;;;21.98;53.78;100989.09;4992345;27;45523;-71
2022/06/20 07:31:15;;;;;;;;;10.67;10.67;;;;;21.91;53.35;100971.59;4973556;27;45498;-72
2022/06/20 07:33:48;;;;;;;;;10.33;9.33;;;;;22.04;53.48;100987.94;5001557;27;45484;-72
2022/06/20 07:36:17;;;;;;;;;11.33;9.33;;;;;22.10;53.46;100998.38;5049242;27;45507;-73
2022/06/20 07:38:53;;;;;;;;;12.67;11.00;;;;;22.15;53.08;101003.50;4993980;27;45645;-73
2022/06/20 07:41:34;;;;;;;;;10.67;9.33;;;;;22.18;52.83;101011.38;4993126;27;45524;-72
2022/06/20 07:44:12;;;;;;;;;13.33;11.67;;;;;22.15;52.84;101007.03;4993091;27;45488;-72
2022/06/20 07:46:55;;;;;;;;;13.33;10.67;;;;;22.05;53.21;101007.50;4993024;27;46325;-72
2022/06/20 07:49:29;;;;;;;;;11.00;10.00;;;;;22.09;52.70;101011.75;5047584;27;45444;-72
2022/06/20 07:52:01;;;;;;;;;12.67;10.67;;;;;22.12;52.53;101015.19;4993096;27;45352;-74
2022/06/20 07:54:40;;;;;;;;;13.00;12.00;;;;;22.12;52.71;101019.66;5019639;27;45378;-72
2022/06/20 07:57:13;;;;;;;;;11.67;11.00;;;;;21.52;53.21;100929.66;4997825;27;45881;-72
2022/06/20 07:59:48;;;;;;;;;9.67;8.67;;;;;22.09;53.13;101027.75;4979589;27;45384;-71
2022/06/20 08:02:33;;;;;;;;;18.67;13.67;;;;;22.12;53.01;101033.00;4993726;27;45523;-71
2022/06/20 08:05:00;;;;;;;;;17.00;12.00;;;;;22.05;52.19;101018.19;4960268;28;45437;-73
2022/06/20 08:07:36;;;;;;;;;12.00;12.00;;;;;21.99;52.95;101017.47;4989512;27;45520;-70
2022/06/20 08:10:12;;;;;;;;;12.67;11.00;;;;;22.02;52.60;101028.03;4991538;28;45401;-72
2022/06/20 08:13:16;;;;;;;;;11.00;11.00;;;;;22.05;52.71;101018.19;4981893;27;45508;-74
2022/06/20 08:15:57;;;;;;;;;12.00;11.00;;;;;22.13;52.30;101024.03;5001618;28;45440;-72
2022/06/20 08:18:24;;;;;;;;;12.67;12.00;;;;;22.14;51.92;101032.00;5012618;28;45500;-71
2022/06/20 08:21:16;;;;;;;;;15.33;12.33;;;;;21.79;52.33;100975.63;4998165;27;45413;-72
2022/06/20 08:23:54;;;;;;;;;12.00;12.00;;;;;21.79;52.71;100982.78;4977344;28;45440;-72
2022/06/20 08:26:29;;;;;;;;;15.67;11.67;;;;;21.99;52.68;101012.13;4996903;27;45490;-72
2022/06/20 08:28:58;;;;;;;;;16.00;12.00;;;;;22.08;52.28;101020.72;4974347;28;45806;-72
2022/06/20 08:31:34;;;;;;;;;16.00;13.00;;;;;22.07;52.23;101014.50;4992179;27;45515;-72
2022/06/20 08:34:18;;;;;;;;;12.00;11.33;;;;;22.13;52.03;101011.56;4992600;27;45397;-73
2022/06/20 08:37:04;;;;;;;;;21.00;18.33;;;;;21.98;51.51;101006.88;4992853;27;45505;-72
2022/06/20 08:39:35;;;;;;;;;19.67;15.33;;;;;21.90;51.86;101009.88;4992759;27;46276;-73
2022/06/20 08:42:38;;;;;;;;;15.67;14.33;;;;;21.85;52.02;101008.31;4992682;27;45517;-72
2022/06/20 08:45:19;;;;;;;;;18.00;14.67;;;;;21.89;52.18;101010.78;4998450;27;45640;-72
2022/06/20 08:48:20;;;;;;;;;14.33;13.00;;;;;21.95;51.84;101021.22;5000051;27;45973;-71
2022/06/20 08:51:07;;;;;;;;;14.67;14.33;;;;;21.97;51.74;101030.03;4996643;27;45402;-72
2022/06/20 08:54:07;;;;;;;;;16.00;14.00;;;;;21.98;51.81;101030.88;4995509;27;45521;-71
2022/06/20 08:56:57;;;;;;;;;15.00;14.00;;;;;21.97;51.71;101039.81;4983770;27;45366;-71
2022/06/20 08:59:51;;;;;;;;;16.67;14.33;;;;;21.98;51.60;101049.56;5067633;27;45298;-71
2022/06/20 09:02:22;;;;;;;;;13.00;11.33;;;;;22.00;51.77;101053.91;4993351;27;46550;-70
2022/06/20 09:05:17;;;;;;;;;21.33;20.33;;;;;21.84;52.02;101054.56;4981266;27;45319;-72
2022/06/20 09:07:46;;;;;;;;;22.00;20.67;;;;;21.54;52.58;101065.50;4984986;28;45468;-72
2022/06/20 09:10:32;;;;;;;;;15.33;13.00;;;;;21.23;53.01;101068.41;4994634;28;45299;-71
2022/06/20 09:13:30;;;;;;;;;18.00;17.67;;;;;20.96;53.74;101068.50;5001550;27;46216;-71
2022/06/20 09:16:30;;;;;;;;;20.00;17.67;;;;;20.73;54.30;101069.31;4969059;28;45544;-71
2022/06/20 09:19:10;;;;;;;;;18.67;16.33;;;;;20.67;55.20;101067.75;4992982;27;45487;-71
2022/06/20 09:21:55;;;;;;;;;24.33;16.00;;;;;20.55;55.72;101068.16;4974795;27;45527;-71
2022/06/20 09:24:21;;;;;;;;;16.33;15.33;;;;;20.52;55.92;101073.53;4991872;27;45814;-71
2022/06/20 09:26:58;;;;;;;;;13.67;13.67;;;;;20.63;55.58;101062.59;4991730;27;45440;-71
2022/06/20 09:29:55;;;;;;;;;12.67;11.33;;;;;20.84;55.34;101074.28;4978729;28;45444;-72
2022/06/20 09:32:32;;;;;;;;;16.00;13.33;;;;;20.98;54.88;101071.13;4994585;27;45818;-71
2022/06/20 09:35:22;;;;;;;;;13.33;13.33;;;;;21.16;55.45;101079.28;4990674;27;46987;-73
2022/06/20 09:38:13;;;;;;;;;13.67;13.33;;;;;21.18;54.34;101057.94;4972419;27;45525;-73
2022/06/20 09:40:50;;;;;;;;;13.67;13.67;;;;;21.28;53.75;101053.13;4969447;28;45740;-73
2022/06/20 09:44:01;;;;;;;;;15.00;12.67;;;;;21.56;53.49;101090.28;4987142;27;45371;-73
2022/06/20 09:46:50;;;;;;;;;15.33;14.00;;;;;21.62;53.25;101091.84;4999011;28;48033;-71
2022/06/20 09:49:47;;;;;;;;;15.33;14.00;;;;;21.68;53.26;101087.16;4995610;27;45465;-73
2022/06/20 09:52:43;;;;;;;;;13.33;11.00;;;;;21.82;53.09;101094.63;4992039;27;45912;-73
2022/06/20 09:55:27;;;;;;;;;17.33;17.00;;;;;21.79;52.75;101098.28;4993083;27;45284;-73
2022/06/20 09:58:11;;;;;;;;;19.33;17.00;;;;;21.77;52.80;101091.28;4992547;27;46294;-73
2022/06/20 10:00:51;;;;;;;;;15.33;14.33;;;;;21.83;52.59;101083.03;4993602;27;45417;-73
2022/06/20 10:03:28;;;;;;;;;31.00;23.00;;;;;21.84;52.32;101102.56;4996754;27;45349;-73
2022/06/20 10:06:10;;;;;;;;;24.67;19.33;;;;;21.67;52.49;101092.56;5004137;27;45519;-72
2022/06/20 10:09:00;;;;;;;;;20.67;17.67;;;;;21.77;52.76;101093.94;5044438;27;45565;-74
2022/06/20 10:11:43;;;;;;;;;18.67;15.33;;;;;21.98;52.57;101101.09;4988837;27;45686;-74
2022/06/20 10:14:18;;;;;;;;;14.33;14.33;;;;;22.12;52.93;101105.03;4981148;27;45665;-73
2022/06/20 10:17:11;;;;;;;;;16.00;15.33;;;;;22.26;52.70;101094.69;4993779;27;45528;-75
2022/06/20 10:19:50;;;;;;;;;13.00;9.67;;;;;22.34;52.32;101081.03;4995818;27;45317;-74
2022/06/20 10:22:29;;;;;;;;;19.00;17.00;;;;;22.62;51.60;101104.75;4974505;28;45474;-75
2022/06/20 10:25:24;;;;;;;;;26.00;23.67;;;;;22.39;50.61;101063.88;4972713;28;45765;-73
2022/06/20 10:28:07;;;;;;;;;27.00;23.67;;;;;22.18;51.17;101054.91;5024558;27;45432;-73
2022/06/20 10:30:39;;;;;;;;;21.67;21.33;;;;;22.41;51.50;101102.03;5059820;27;46394;-74
2022/06/20 10:33:40;;;;;;;;;21.67;21.33;;;;;22.59;50.90;101107.53;4983982;27;45345;-72
2022/06/20 10:36:46;;;;;;;;;21.00;20.67;;;;;22.62;50.60;101081.59;4996178;28;45429;-72
2022/06/20 10:39:35;;;;;;;;;23.00;19.33;;;;;22.85;50.34;101099.31;4985266;27;45424;-72
2022/06/20 10:42:06;;;;;;;;;20.00;18.33;;;;;23.05;50.18;101113.63;4981311;27;46548;-73
2022/06/20 10:45:02;;;;;;;;;24.33;21.00;;;;;23.16;49.66;101124.69;4989744;27;45464;-72
2022/06/20 10:48:04;;;;;;;;;27.33;20.00;;;;;23.24;49.46;101129.69;4976161;27;45410;-73
2022/06/20 10:50:38;;;;;;;;;19.67;19.00;;;;;22.81;49.79;101048.75;4977432;27;45382;-72
2022/06/20 10:53:29;;;;;;;;;27.33;27.33;;;;;23.17;49.39;101134.44;4990482;27;46087;-71
2022/06/20 10:56:30;;;;;;;;;24.33;22.33;;;;;23.13;49.66;101118.59;4992930;27;45267;-72
2022/06/20 10:59:37;;;;;;;;;25.00;23.00;;;;;23.12;49.75;101123.09;4990948;27;46001;-74
2022/06/20 11:02:21;;;;;;;;;22.00;20.00;;;;;23.23;49.61;101130.63;4988320;27;45503;-71
2022/06/20 11:04:59;;;;;;;;;21.67;18.67;;;;;23.34;49.32;101127.47;4995255;27;46052;-72
2022/06/20 11:07:25;;;;;;;;;25.33;21.00;;;;;23.43;49.08;101129.75;4972613;28;45356;-73
2022/06/20 11:10:15;;;;;;;;;18.67;15.00;;;;;23.53;48.94;101136.38;4982031;27;45551;-73
2022/06/20 11:12:56;;;;;;;;;23.33;20.33;;;;;23.45;49.18;101127.88;4977762;28;45307;-73
2022/06/20 11:15:37;;;;;;;;;21.33;20.00;;;;;23.49;49.12;101133.00;4999343;27;45547;-73
2022/06/20 11:18:40;;;;;;;;;19.00;19.00;;;;;23.61;48.96;101133.34;4998345;27;45398;-73
2022/06/20 11:21:23;;;;;;;;;23.00;21.67;;;;;23.77;48.65;101136.22;4969674;27;45681;-74
2022/06/20 11:24:04;;;;;;;;;20.00;20.00;;;;;23.83;48.76;101128.78;4994658;27;45300;-74
2022/06/20 11:27:04;;;;;;;;;22.33;19.67;;;;;23.64;48.60;101138.59;4995414;27;45992;-74
2022/06/20 11:29:51;;;;;;;;;24.33;20.33;;;;;23.60;48.85;101140.50;4996762;28;45550;-75
2022/06/20 11:32:38;;;;;;;;;19.67;19.67;;;;;23.60;48.85;101147.69;4979121;27;45562;-74
2022/06/20 11:35:30;;;;;;;;;21.33;18.67;;;;;23.55;49.30;101137.19;4994589;27;45564;-73
2022/06/20 11:38:14;;;;;;;;;20.33;20.33;;;;;23.46;49.24;101127.78;4983714;27;45647;-73
2022/06/20 11:41:07;;;;;;;;;23.00;21.33;;;;;23.13;49.25;101108.78;4993683;27;45367;-75
2022/06/20 11:44:08;;;;;;;;;22.33;20.67;;;;;23.01;50.42;101149.41;4994775;27;45657;-73
2022/06/20 11:46:37;;;;;;;;;19.00;18.33;;;;;22.93;50.27;101144.38;4984646;27;45619;-74
2022/06/20 11:49:13;;;;;;;;;20.00;17.67;;;;;23.03;50.17;101140.38;4994894;27;46749;-75
2022/06/20 11:52:00;;;;;;;;;18.33;17.33;;;;;23.18;50.46;101129.97;4994373;27;45295;-74
2022/06/20 11:54:45;;;;;;;;;17.33;17.33;;;;;23.53;49.61;101119.50;4994241;27;45574;-73
2022/06/20 11:57:33;;;;;;;;;19.67;19.00;;;;;23.79;49.39;101119.16;4983552;27;45220;-75
2022/06/20 12:00:05;;;;;;;;;23.67;20.00;;;;;23.69;48.91;101107.16;4981994;27;46316;-72
2022/06/20 12:02:34;;;;;;;;;18.67;15.33;;;;;24.01;48.78;101118.16;4993408;27;45622;-74
2022/06/20 12:05:27;;;;;;;;;53.50;44.50;;;;;23.96;48.44;101062.19;4993515;27;45461;-73
2022/06/20 12:08:04;;;;;;;;;60.75;49.50;;;;;24.15;48.13;101110.31;4993145;27;45546;-73